Time;durP1;ratioP1;P1;durP2;ratioP2;P2;SDS_P1;SDS_P2;PMS_P1;PMS_P2;Temp;Humidity;BMP_temperature;BMP_pressure;BME280_temperature;BME280_humidity;BME280_pressure;Samples;Min_cycle;Max_cycle;Signal;HPM_P1;HPM_P2
2021/12/01 05:01:01;;;;;;;1.10;1.10;;;6.20;99.90;;;;;;5706852;23;20894;-71
2021/12/01 05:03:29;;;;;;;1.50;1.50;;;6.20;99.90;;;;;;4978442;28;20459;-71
2021/12/01 05:05:56;;;;;;;1.20;1.20;;;6.10;99.90;;;;;;4978231;28;20494;-72
2021/12/01 05:08:23;;;;;;;1.00;1.00;;;6.10;99.90;;;;;;4978458;28;20477;-70
2021/12/01 05:10:50;;;;;;;1.10;1.10;;;6.10;99.90;;;;;;4978110;28;21005;-69
2021/12/01 05:13:17;;;;;;;1.63;1.50;;;6.10;99.90;;;;;;4977962;28;20894;-70
2021/12/01 05:15:44;;;;;;;1.50;1.50;;;6.20;99.90;;;;;;4978127;28;20505;-70
2021/12/01 05:18:12;;;;;;;1.30;1.20;;;6.20;99.90;;;;;;4976684;28;20828;-70
2021/12/01 05:20:39;;;;;;;1.20;1.20;;;6.10;99.90;;;;;;4978015;28;20883;-70
2021/12/01 05:23:06;;;;;;;1.20;1.20;;;6.20;99.90;;;;;;4977870;28;20483;-70
2021/12/01 05:25:33;;;;;;;1.10;1.10;;;6.20;99.90;;;;;;4977965;28;20455;-70
2021/12/01 05:28:00;;;;;;;1.80;1.30;;;6.30;99.90;;;;;;4977773;28;20459;-71
2021/12/01 05:30:27;;;;;;;1.20;1.10;;;6.30;99.90;;;;;;4977698;28;20533;-70
2021/12/01 05:32:54;;;;;;;1.17;1.17;;;6.30;99.90;;;;;;4978128;28;20479;-71
2021/12/01 05:35:22;;;;;;;1.33;1.23;;;6.30;99.90;;;;;;4977804;28;20817;-70
2021/12/01 05:37:49;;;;;;;1.03;1.03;;;6.30;99.90;;;;;;4977804;28;20459;-69
2021/12/01 05:40:15;;;;;;;1.00;1.00;;;6.30;99.90;;;;;;4977671;28;20466;-71
2021/12/01 05:42:42;;;;;;;0.83;0.83;;;6.40;99.90;;;;;;4978090;28;20451;-72
2021/12/01 05:45:09;;;;;;;0.90;0.90;;;6.40;99.90;;;;;;4977574;28;20485;-71
2021/12/01 05:47:35;;;;;;;1.70;0.87;;;6.50;99.90;;;;;;4977810;28;20467;-69
2021/12/01 05:50:02;;;;;;;0.83;0.83;;;6.50;99.90;;;;;;4978023;28;20459;-71
2021/12/01 05:52:30;;;;;;;0.90;0.90;;;6.40;99.90;;;;;;4977064;28;20475;-71
2021/12/01 05:54:57;;;;;;;0.80;0.80;;;6.60;99.90;;;;;;4977994;28;20451;-70
2021/12/01 05:57:24;;;;;;;2.00;0.97;;;6.80;99.90;;;;;;4977841;28;20513;-70
2021/12/01 05:59:51;;;;;;;0.50;0.50;;;7.10;99.90;;;;;;4977424;28;20459;-71
2021/12/01 06:02:18;;;;;;;0.70;0.70;;;7.10;99.90;;;;;;4977152;28;20482;-72
2021/12/01 06:04:44;;;;;;;1.03;0.93;;;7.20;99.90;;;;;;4976930;28;20961;-71
2021/12/01 06:07:11;;;;;;;0.63;0.63;;;7.20;99.90;;;;;;4977351;28;20462;-71
2021/12/01 06:09:39;;;;;;;1.13;0.80;;;7.20;99.90;;;;;;4977145;28;20809;-70
2021/12/01 06:12:07;;;;;;;1.17;0.70;;;7.30;99.90;;;;;;4977943;28;20479;-70
2021/12/01 06:14:35;;;;;;;1.10;1.10;;;7.30;99.90;;;;;;4977331;28;20459;-70
2021/12/01 06:17:02;;;;;;;0.70;0.70;;;7.30;99.90;;;;;;4977638;28;20661;-69
2021/12/01 06:19:28;;;;;;;0.80;0.80;;;7.20;99.90;;;;;;4976995;28;21001;-69
2021/12/01 06:21:55;;;;;;;0.80;0.80;;;7.10;99.90;;;;;;4976517;28;20980;-69
2021/12/01 06:24:22;;;;;;;0.90;0.90;;;7.10;99.90;;;;;;4977063;28;20518;-69
2021/12/01 06:26:50;;;;;;;0.60;0.60;;;7.00;99.90;;;;;;4977059;28;20494;-69
2021/12/01 06:29:16;;;;;;;0.60;0.60;;;7.00;99.90;;;;;;4976733;28;20939;-69
2021/12/01 06:31:43;;;;;;;0.57;0.57;;;6.90;99.90;;;;;;4976702;28;20495;-72
2021/12/01 06:34:10;;;;;;;4.37;1.00;;;7.00;99.90;;;;;;4976959;28;20506;-72
2021/12/01 06:36:38;;;;;;;2.00;0.83;;;7.00;99.90;;;;;;4977833;28;20443;-71
2021/12/01 06:39:06;;;;;;;1.40;0.50;;;7.00;99.90;;;;;;4977134;28;20451;-75
2021/12/01 06:41:33;;;;;;;0.77;0.63;;;7.00;99.90;;;;;;4977555;28;20486;-72
2021/12/01 06:44:01;;;;;;;0.80;0.80;;;7.10;99.90;;;;;;4977291;28;20854;-72
2021/12/01 06:46:28;;;;;;;1.53;0.70;;;7.10;99.90;;;;;;4978862;28;20828;-72
2021/12/01 06:48:56;;;;;;;0.87;0.87;;;7.10;99.90;;;;;;4976852;28;20545;-72
2021/12/01 06:51:23;;;;;;;0.80;0.80;;;7.10;99.90;;;;;;4976524;28;20478;-72
2021/12/01 06:53:50;;;;;;;1.73;0.80;;;7.10;99.90;;;;;;4976786;28;20892;-71
2021/12/01 06:56:18;;;;;;;0.80;0.73;;;7.10;99.90;;;;;;4976869;28;20872;-71
2021/12/01 06:58:46;;;;;;;0.70;0.70;;;7.20;99.90;;;;;;4976703;28;20546;-72
2021/12/01 07:01:14;;;;;;;1.40;0.90;;;7.20;99.90;;;;;;4976405;28;20627;-71
2021/12/01 07:03:41;;;;;;;1.03;0.97;;;7.30;99.90;;;;;;4977020;28;20464;-71
2021/12/01 07:06:08;;;;;;;0.60;0.60;;;7.30;99.90;;;;;;4976840;28;20459;-71
2021/12/01 07:08:36;;;;;;;1.13;0.80;;;7.30;99.90;;;;;;4976718;28;20496;-72
2021/12/01 07:11:03;;;;;;;0.60;0.60;;;7.30;99.90;;;;;;4976098;28;20479;-71
2021/12/01 07:13:32;;;;;;;1.43;0.80;;;7.30;99.90;;;;;;4976142;28;20886;-71
2021/12/01 07:15:59;;;;;;;1.00;0.90;;;7.30;99.90;;;;;;4975937;28;20965;-71
2021/12/01 07:18:27;;;;;;;0.90;0.90;;;7.40;99.90;;;;;;4976006;28;20455;-72
2021/12/01 07:20:53;;;;;;;1.00;0.80;;;7.40;99.90;;;;;;4975949;28;20994;-72
2021/12/01 07:23:20;;;;;;;0.83;0.83;;;7.40;99.90;;;;;;4976142;28;20450;-71
2021/12/01 07:25:47;;;;;;;1.07;0.80;;;7.40;99.90;;;;;;4975665;28;20458;-71
2021/12/01 07:28:14;;;;;;;1.83;0.80;;;7.40;99.90;;;;;;4976100;28;20454;-71
2021/12/01 07:30:40;;;;;;;0.83;0.83;;;7.40;99.90;;;;;;4975868;28;20533;-72
2021/12/01 07:33:07;;;;;;;0.80;0.80;;;7.50;99.90;;;;;;4975720;28;21044;-71
2021/12/01 07:35:35;;;;;;;0.80;0.80;;;7.50;99.90;;;;;;4976418;28;20481;-71
2021/12/01 07:38:02;;;;;;;0.80;0.80;;;7.60;99.90;;;;;;4977003;28;20462;-71
2021/12/01 07:40:28;;;;;;;0.70;0.70;;;7.60;99.90;;;;;;4975669;28;20451;-71
2021/12/01 07:42:55;;;;;;;1.07;0.97;;;7.70;99.90;;;;;;4974995;28;20930;-71
2021/12/01 07:45:22;;;;;;;0.90;0.90;;;7.70;99.90;;;;;;4975979;28;20459;-72
2021/12/01 07:47:49;;;;;;;0.80;0.63;;;7.70;99.90;;;;;;4975937;28;20459;-70
2021/12/01 07:50:15;;;;;;;0.93;0.83;;;7.80;99.90;;;;;;4975724;28;20470;-71
2021/12/01 07:52:43;;;;;;;0.70;0.70;;;7.70;99.90;;;;;;4975277;28;20810;-70
2021/12/01 07:55:10;;;;;;;0.70;0.70;;;7.70;99.90;;;;;;4975977;28;20451;-71
2021/12/01 07:57:38;;;;;;;1.43;0.80;;;7.80;99.90;;;;;;4975462;28;20913;-71
2021/12/01 08:00:06;;;;;;;1.00;0.67;;;8.10;99.90;;;;;;4975472;28;20930;-71
2021/12/01 08:02:35;;;;;;;0.57;0.57;;;8.20;99.90;;;;;;4976177;28;20487;-72
2021/12/01 08:05:02;;;;;;;0.60;0.60;;;8.20;99.90;;;;;;4975646;28;20458;-71
2021/12/01 08:07:33;;;;;;;1.60;0.90;;;8.30;99.90;;;;;;4976103;28;20455;-70
2021/12/01 08:10:01;;;;;;;0.60;0.60;;;8.40;99.90;;;;;;4975701;28;20443;-70
2021/12/01 08:12:28;;;;;;;0.80;0.80;;;8.60;99.90;;;;;;4975311;28;20493;-71
2021/12/01 08:14:55;;;;;;;1.23;0.50;;;8.70;99.90;;;;;;4975519;28;20459;-71
2021/12/01 08:17:21;;;;;;;4.67;0.60;;;8.70;99.90;;;;;;4975809;28;20513;-71
2021/12/01 08:19:48;;;;;;;0.80;0.80;;;8.60;99.90;;;;;;4975548;28;20463;-71
2021/12/01 08:22:15;;;;;;;0.60;0.57;;;8.60;99.90;;;;;;4974540;28;20985;-71
2021/12/01 08:24:41;;;;;;;1.07;0.63;;;8.60;99.90;;;;;;4975337;28;20526;-70
2021/12/01 08:27:10;;;;;;;1.83;0.70;;;8.50;99.90;;;;;;4975940;28;20455;-70
2021/12/01 08:29:36;;;;;;;0.70;0.50;;;8.50;99.90;;;;;;4975716;28;20463;-70
2021/12/01 08:32:04;;;;;;;0.50;0.50;;;8.40;99.90;;;;;;4974880;28;21007;-70
2021/12/01 08:34:31;;;;;;;0.50;0.50;;;8.40;99.90;;;;;;4975646;28;20454;-70
2021/12/01 08:36:57;;;;;;;1.23;0.60;;;8.30;99.90;;;;;;4975307;28;20522;-70
2021/12/01 08:39:24;;;;;;;1.00;0.43;;;8.20;99.90;;;;;;4975319;28;20942;-71
2021/12/01 08:41:51;;;;;;;0.40;0.40;;;8.30;99.90;;;;;;4975597;28;20893;-70
2021/12/01 08:44:19;;;;;;;0.50;0.50;;;8.50;99.90;;;;;;4974939;28;20451;-70
2021/12/01 08:46:45;;;;;;;2.00;0.43;;;8.90;99.90;;;;;;4974532;28;20968;-69
2021/12/01 08:49:12;;;;;;;0.60;0.60;;;9.10;99.90;;;;;;4984202;28;20478;-71
2021/12/01 08:51:39;;;;;;;0.53;0.53;;;9.30;99.90;;;;;;4975746;28;20985;-70
2021/12/01 08:54:06;;;;;;;0.50;0.40;;;9.50;99.90;;;;;;4978459;28;20575;-71
2021/12/01 08:56:33;;;;;;;0.50;0.50;;;9.60;99.90;;;;;;4978582;28;20455;-71
2021/12/01 08:59:00;;;;;;;1.13;0.60;;;10.10;99.90;;;;;;4978335;28;20458;-70
2021/12/01 09:01:28;;;;;;;1.37;0.70;;;10.50;99.90;;;;;;4978432;28;20486;-70
2021/12/01 09:03:55;;;;;;;0.60;0.50;;;10.60;99.90;;;;;;4978643;28;20455;-71
2021/12/01 09:06:22;;;;;;;0.40;0.40;;;10.60;99.90;;;;;;4978207;28;21001;-70
2021/12/01 09:08:48;;;;;;;1.43;0.50;;;10.50;99.90;;;;;;4978516;28;20510;-70
2021/12/01 09:11:15;;;;;;;0.57;0.57;;;10.50;99.90;;;;;;4978248;28;20982;-70
2021/12/01 09:13:42;;;;;;;0.37;0.33;;;10.40;99.90;;;;;;4978117;28;20482;-70
2021/12/01 09:16:08;;;;;;;0.50;0.50;;;10.20;99.90;;;;;;4978304;28;20456;-70
2021/12/01 09:18:37;;;;;;;0.40;0.40;;;10.10;99.90;;;;;;4978348;28;20467;-71
2021/12/01 09:21:05;;;;;;;0.50;0.50;;;10.10;99.90;;;;;;4978225;28;20926;-70
2021/12/01 09:23:31;;;;;;;0.30;0.30;;;10.10;99.90;;;;;;4977958;28;20943;-70
2021/12/01 09:25:58;;;;;;;0.40;0.40;;;9.90;99.90;;;;;;4978096;28;20513;-71
2021/12/01 09:28:27;;;;;;;1.13;0.37;;;9.70;99.90;;;;;;4978370;28;20456;-70
2021/12/01 09:30:56;;;;;;;0.83;0.40;;;9.60;99.90;;;;;;4978124;28;20553;-71
2021/12/01 09:33:24;;;;;;;0.50;0.50;;;9.50;99.90;;;;;;4977811;28;20530;-70
2021/12/01 09:35:52;;;;;;;0.33;0.33;;;9.40;99.90;;;;;;4978031;28;20458;-70
2021/12/01 09:38:20;;;;;;;0.83;0.83;;;9.30;99.90;;;;;;4977256;28;20955;-71
2021/12/01 09:40:51;;;;;;;0.37;0.37;;;9.40;99.90;;;;;;4977616;28;20475;-71
2021/12/01 09:43:20;;;;;;;0.40;0.40;;;9.40;99.90;;;;;;4978429;28;20439;-71
2021/12/01 09:45:47;;;;;;;0.40;0.40;;;9.40;99.90;;;;;;4977847;28;20482;-70
2021/12/01 09:48:14;;;;;;;1.70;0.50;;;9.30;99.90;;;;;;4978214;28;20471;-70
2021/12/01 09:50:41;;;;;;;0.80;0.80;;;9.30;99.90;;;;;;4978232;28;20475;-70
2021/12/01 09:53:10;;;;;;;0.40;0.40;;;9.20;99.90;;;;;;4977736;28;20479;-70
2021/12/01 09:55:36;;;;;;;0.47;0.40;;;9.30;99.90;;;;;;4977283;28;20537;-70
2021/12/01 09:58:05;;;;;;;0.40;0.40;;;9.30;99.90;;;;;;4977642;28;20876;-71
2021/12/01 10:00:34;;;;;;;0.40;0.40;;;9.30;99.90;;;;;;4977366;28;20498;-70
2021/12/01 10:03:01;;;;;;;0.50;0.50;;;9.30;99.90;;;;;;4977988;28;20807;-70
2021/12/01 10:05:47;;;;;;;0.57;0.57;;;9.40;99.90;;;;;;4976766;28;20458;-70
2021/12/01 10:08:18;;;;;;;0.30;0.30;;;9.40;99.90;;;;;;4977500;28;20513;-70
2021/12/01 10:10:45;;;;;;;3.27;0.77;;;9.40;99.90;;;;;;4977346;28;20565;-70
2021/12/01 10:13:12;;;;;;;0.40;0.40;;;9.40;99.90;;;;;;4977202;28;20483;-70
2021/12/01 10:15:39;;;;;;;0.40;0.40;;;9.40;99.90;;;;;;4976917;28;20451;-70
2021/12/01 10:18:13;;;;;;;0.30;0.30;;;9.40;99.90;;;;;;4977008;28;20510;-70
2021/12/01 10:20:40;;;;;;;0.50;0.50;;;9.40;99.90;;;;;;4977267;28;20479;-71
2021/12/01 10:23:08;;;;;;;1.40;0.43;;;9.40;99.90;;;;;;4979959;28;20863;-70
2021/12/01 10:25:36;;;;;;;0.43;0.43;;;9.50;99.90;;;;;;4976470;28;20955;-70
2021/12/01 10:28:03;;;;;;;0.60;0.60;;;9.40;99.90;;;;;;4976570;28;20803;-70
2021/12/01 10:30:40;;;;;;;0.40;0.40;;;9.50;99.90;;;;;;4976952;28;20463;-70
2021/12/01 10:33:09;;;;;;;1.10;0.30;;;9.50;99.90;;;;;;4976891;28;20517;-70
2021/12/01 10:35:36;;;;;;;0.60;0.60;;;9.60;99.90;;;;;;4976798;28;20506;-70
2021/12/01 10:38:04;;;;;;;1.50;0.73;;;9.60;99.90;;;;;;4976768;28;20458;-70
2021/12/01 10:40:31;;;;;;;0.50;0.50;;;9.70;99.90;;;;;;4976881;28;20510;-70
2021/12/01 10:43:01;;;;;;;0.60;0.60;;;9.70;99.90;;;;;;4976755;28;20483;-70
2021/12/01 10:45:29;;;;;;;0.50;0.50;;;9.80;99.90;;;;;;4976449;28;20439;-70
2021/12/01 10:47:57;;;;;;;0.60;0.60;;;9.80;99.90;;;;;;4976793;28;20456;-70
2021/12/01 10:50:28;;;;;;;8.27;0.80;;;9.90;99.90;;;;;;4976104;28;20975;-70
2021/12/01 10:53:04;;;;;;;1.70;0.50;;;9.80;99.90;;;;;;4976181;28;20495;-70
2021/12/01 10:55:32;;;;;;;0.43;0.43;;;9.80;99.90;;;;;;4976362;28;20470;-70
2021/12/01 10:58:02;;;;;;;0.50;0.50;;;9.80;99.90;;;;;;4975892;28;20459;-70
2021/12/01 11:00:33;;;;;;;0.50;0.50;;;9.90;99.90;;;;;;4976734;28;20458;-69
2021/12/01 11:03:07;;;;;;;0.40;0.40;;;9.90;99.90;;;;;;4976484;28;20458;-70
2021/12/01 11:05:36;;;;;;;0.50;0.43;;;9.90;99.90;;;;;;4976308;28;20455;-70
2021/12/01 11:08:15;;;;;;;0.50;0.50;;;9.90;99.90;;;;;;4975968;28;20459;-70
2021/12/01 11:10:43;;;;;;;0.97;0.47;;;9.90;99.90;;;;;;4976603;28;20474;-70
2021/12/01 11:13:12;;;;;;;0.40;0.40;;;9.90;99.90;;;;;;4976212;28;20513;-70
2021/12/01 11:15:41;;;;;;;0.40;0.40;;;9.90;99.90;;;;;;4975749;28;20458;-70
2021/12/01 11:18:11;;;;;;;0.43;0.40;;;9.90;99.90;;;;;;4977222;28;20461;-70
2021/12/01 11:20:41;;;;;;;0.40;0.40;;;9.90;99.90;;;;;;4977847;28;20482;-70
2021/12/01 11:23:14;;;;;;;0.47;0.47;;;9.90;99.90;;;;;;4976253;28;20440;-71
2021/12/01 11:25:42;;;;;;;0.80;0.50;;;9.90;99.90;;;;;;4976142;28;20498;-71
2021/12/01 11:28:13;;;;;;;0.73;0.60;;;9.90;99.90;;;;;;4976189;28;20455;-70
2021/12/01 11:30:41;;;;;;;3.23;0.43;;;9.90;99.90;;;;;;4975919;28;20479;-69
2021/12/01 11:33:11;;;;;;;0.53;0.53;;;9.80;99.90;;;;;;4976215;28;20488;-69
2021/12/01 11:35:38;;;;;;;0.30;0.30;;;9.80;99.90;;;;;;4975809;28;20458;-70
2021/12/01 11:38:06;;;;;;;0.70;0.40;;;9.70;99.90;;;;;;4975456;28;20982;-69
2021/12/01 11:40:33;;;;;;;0.60;0.60;;;9.70;99.90;;;;;;4975414;28;21872;-69
2021/12/01 11:43:00;;;;;;;0.60;0.60;;;9.80;99.90;;;;;;4975912;28;20482;-69
2021/12/01 11:45:28;;;;;;;0.50;0.50;;;9.80;99.90;;;;;;4975783;28;20780;-70
2021/12/01 11:47:55;;;;;;;0.40;0.40;;;9.80;99.90;;;;;;4975643;28;20946;-70
2021/12/01 11:50:32;;;;;;;0.70;0.43;;;9.90;99.90;;;;;;4976124;28;20459;-71
2021/12/01 11:53:16;;;;;;;1.80;0.40;;;9.90;99.90;;;;;;4975634;28;20478;-71
2021/12/01 11:56:00;;;;;;;2.13;0.67;;;10.00;99.90;;;;;;4975444;28;20795;-71
2021/12/01 11:58:57;;;;;;;2.67;0.80;;;10.00;99.90;;;;;;4975455;28;21001;-71
2021/12/01 12:01:50;;;;;;;2.33;0.77;;;10.20;99.90;;;;;;4976042;28;20487;-71
2021/12/01 12:04:42;;;;;;;0.60;0.60;;;10.20;99.90;;;;;;4975745;28;20432;-71
2021/12/01 12:07:12;;;;;;;0.30;0.30;;;10.20;99.90;;;;;;4975018;28;20437;-71
2021/12/01 12:09:39;;;;;;;0.53;0.53;;;10.30;99.90;;;;;;4975179;28;20461;-71
2021/12/01 12:12:20;;;;;;;0.60;0.60;;;10.30;99.90;;;;;;4975375;28;20607;-72
2021/12/01 12:14:53;;;;;;;0.47;0.47;;;10.40;99.90;;;;;;4975641;28;20467;-71
2021/12/01 12:17:32;;;;;;;0.60;0.37;;;10.40;99.90;;;;;;4975622;28;20455;-70
2021/12/01 12:20:02;;;;;;;0.50;0.50;;;10.40;99.90;;;;;;4975368;28;20443;-71
2021/12/01 12:22:52;;;;;;;1.17;0.90;;;10.40;99.90;;;;;;4975589;28;20842;-70
2021/12/01 12:25:38;;;;;;;1.40;0.50;;;10.50;99.90;;;;;;4975003;28;20459;-70
2021/12/01 12:28:21;;;;;;;0.33;0.33;;;10.50;99.90;;;;;;4977097;28;20426;-70
2021/12/01 12:30:48;;;;;;;0.50;0.50;;;10.60;99.90;;;;;;4978992;28;20486;-71
2021/12/01 12:33:21;;;;;;;0.97;0.63;;;10.80;99.90;;;;;;4978893;28;20454;-71
2021/12/01 12:35:51;;;;;;;1.33;0.63;;;10.90;99.90;;;;;;4978353;28;20471;-71
2021/12/01 12:38:18;;;;;;;1.40;0.73;;;10.90;99.90;;;;;;4978863;28;20503;-71
2021/12/01 12:40:47;;;;;;;0.57;0.57;;;11.00;99.90;;;;;;4978646;28;20484;-71
2021/12/01 12:43:21;;;;;;;0.60;0.60;;;11.00;99.90;;;;;;4978397;28;20459;-71
2021/12/01 12:46:03;;;;;;;1.33;0.60;;;11.10;99.90;;;;;;4979075;28;20444;-71
2021/12/01 12:48:33;;;;;;;0.70;0.70;;;11.00;99.90;;;;;;4978380;28;20443;-71
2021/12/01 12:51:14;;;;;;;0.60;0.60;;;10.80;99.90;;;;;;4978606;28;20522;-71
2021/12/01 12:54:14;;;;;;;2.73;0.80;;;10.80;99.90;;;;;;4979531;28;20528;-71
2021/12/01 12:56:43;;;;;;;0.67;0.63;;;10.80;99.90;;;;;;4978817;28;20817;-71
2021/12/01 12:59:21;;;;;;;1.03;0.50;;;10.80;99.90;;;;;;4978898;28;20459;-71
2021/12/01 13:01:49;;;;;;;4.63;1.07;;;10.70;99.90;;;;;;4978206;28;20487;-71
2021/12/01 13:04:58;;;;;;;1.30;0.60;;;10.60;99.90;;;;;;4978592;28;20456;-71
2021/12/01 13:07:46;;;;;;;1.27;1.13;;;10.60;99.90;;;;;;4978528;28;20443;-71
2021/12/01 13:10:20;;;;;;;0.67;0.67;;;10.60;99.90;;;;;;4978660;28;20778;-71
2021/12/01 13:12:50;;;;;;;0.50;0.50;;;10.50;99.90;;;;;;4978406;28;20439;-71
2021/12/01 13:15:26;;;;;;;0.40;0.40;;;10.40;99.90;;;;;;4978324;28;20470;-72
2021/12/01 13:17:54;;;;;;;0.80;0.80;;;10.30;99.90;;;;;;4978244;28;20455;-71
2021/12/01 13:20:27;;;;;;;1.17;0.70;;;10.50;99.90;;;;;;4979420;28;20462;-71
2021/12/01 13:23:02;;;;;;;2.57;0.53;;;10.50;99.90;;;;;;4979241;28;20856;-71
2021/12/01 13:25:28;;;;;;;0.73;0.47;;;10.50;99.90;;;;;;4978119;28;20948;-71
2021/12/01 13:27:55;;;;;;;0.40;0.40;;;10.50;99.90;;;;;;4978059;28;20509;-71
2021/12/01 13:30:22;;;;;;;0.50;0.50;;;10.50;99.90;;;;;;4978055;28;20894;-71
2021/12/01 13:33:07;;;;;;;1.47;0.40;;;10.40;99.90;;;;;;4978102;28;20458;-71
2021/12/01 13:35:36;;;;;;;0.30;0.30;;;10.40;99.90;;;;;;4978083;28;20849;-71
2021/12/01 13:38:02;;;;;;;0.40;0.40;;;10.40;99.90;;;;;;4977949;28;20466;-71
2021/12/01 13:40:29;;;;;;;0.30;0.30;;;10.40;99.90;;;;;;4977426;28;20460;-71
2021/12/01 13:42:56;;;;;;;0.30;0.30;;;10.50;99.90;;;;;;4977893;28;20542;-72
2021/12/01 13:45:24;;;;;;;0.27;0.27;;;10.50;99.90;;;;;;4978268;28;20510;-71
2021/12/01 13:47:51;;;;;;;0.50;0.50;;;10.30;99.90;;;;;;4977696;28;20513;-71
2021/12/01 13:50:19;;;;;;;0.60;0.60;;;10.40;99.90;;;;;;4977818;28;20452;-71
2021/12/01 13:52:51;;;;;;;0.70;0.50;;;10.40;99.90;;;;;;4977832;28;20497;-71
2021/12/01 13:55:21;;;;;;;0.50;0.50;;;10.40;99.90;;;;;;4978154;28;20515;-71
2021/12/01 13:57:52;;;;;;;0.40;0.40;;;10.30;99.90;;;;;;4978133;28;20443;-71
2021/12/01 14:00:32;;;;;;;1.43;0.30;;;10.30;99.90;;;;;;4978224;28;20522;-71
2021/12/01 14:02:58;;;;;;;1.80;0.40;;;10.20;99.90;;;;;;4977619;28;20439;-71
2021/12/01 14:05:25;;;;;;;0.30;0.30;;;10.10;99.90;;;;;;4977498;28;20819;-71
2021/12/01 14:07:54;;;;;;;1.07;0.50;;;10.10;99.90;;;;;;4977335;28;20455;-71
2021/12/01 14:10:37;;;;;;;0.50;0.43;;;10.00;99.90;;;;;;4977455;28;20455;-71
2021/12/01 14:13:04;;;;;;;2.50;0.50;;;10.00;99.90;;;;;;4976599;28;20455;-71
2021/12/01 14:15:34;;;;;;;0.53;0.37;;;10.00;99.90;;;;;;4977526;28;20484;-71
2021/12/01 14:18:02;;;;;;;0.60;0.50;;;10.00;99.90;;;;;;4977747;28;20455;-71
2021/12/01 14:20:29;;;;;;;0.50;0.50;;;10.00;99.90;;;;;;4977707;28;20455;-72
2021/12/01 14:22:59;;;;;;;2.30;0.30;;;10.00;99.90;;;;;;4977682;28;20478;-71
2021/12/01 14:25:27;;;;;;;0.50;0.50;;;10.00;99.90;;;;;;4977130;28;20915;-71
2021/12/01 14:28:08;;;;;;;0.90;0.50;;;10.00;99.90;;;;;;4977758;28;20482;-71
2021/12/01 14:30:36;;;;;;;0.30;0.30;;;10.00;99.90;;;;;;4980802;28;20476;-71
2021/12/01 14:33:02;;;;;;;0.40;0.40;;;9.90;99.90;;;;;;4979104;28;20455;-71
2021/12/01 14:35:29;;;;;;;0.60;0.60;;;9.90;99.90;;;;;;4976959;28;20479;-70
2021/12/01 14:37:58;;;;;;;0.40;0.40;;;9.90;99.90;;;;;;4976825;28;20472;-70
2021/12/01 14:40:24;;;;;;;0.40;0.40;;;9.90;99.90;;;;;;4977366;28;20465;-70
2021/12/01 14:42:53;;;;;;;0.37;0.37;;;9.80;99.90;;;;;;4976986;28;20455;-71
2021/12/01 14:45:23;;;;;;;0.60;0.60;;;9.70;99.90;;;;;;4976989;28;20966;-70
2021/12/01 14:48:02;;;;;;;0.47;0.47;;;9.70;99.90;;;;;;4976950;28;20447;-70
2021/12/01 14:50:29;;;;;;;0.40;0.40;;;9.70;99.90;;;;;;4976378;28;20481;-70
2021/12/01 14:53:00;;;;;;;1.23;0.40;;;9.70;99.90;;;;;;4976871;28;20463;-70
2021/12/01 14:55:27;;;;;;;0.70;0.70;;;9.60;99.90;;;;;;4977439;28;20506;-71
2021/12/01 14:57:57;;;;;;;0.87;0.60;;;9.60;99.90;;;;;;4976613;28;20455;-71
2021/12/01 15:00:26;;;;;;;2.83;0.70;;;9.60;99.90;;;;;;4976809;28;20822;-70
2021/12/01 15:02:53;;;;;;;0.97;0.97;;;9.60;99.90;;;;;;4976707;28;20455;-70
2021/12/01 15:05:21;;;;;;;0.40;0.40;;;9.60;99.90;;;;;;4976038;28;20451;-71
2021/12/01 15:08:08;;;;;;;0.60;0.60;;;9.50;99.90;;;;;;4976924;28;20455;-71
2021/12/01 15:10:38;;;;;;;1.30;0.80;;;9.60;99.90;;;;;;4976776;28;20535;-71
2021/12/01 15:13:10;;;;;;;0.57;0.57;;;9.50;99.90;;;;;;4977627;28;20470;-71
2021/12/01 15:15:44;;;;;;;0.50;0.50;;;9.40;99.90;;;;;;4976734;28;20470;-71
2021/12/01 15:18:13;;;;;;;0.60;0.60;;;9.50;99.90;;;;;;4976749;28;20478;-70
2021/12/01 15:21:02;;;;;;;3.30;0.50;;;9.50;99.90;;;;;;4976421;28;20486;-71
2021/12/01 15:23:43;;;;;;;0.80;0.80;;;9.40;99.90;;;;;;4976303;28;20492;-70
2021/12/01 15:26:12;;;;;;;0.63;0.63;;;9.50;99.90;;;;;;4976292;28;20439;-70
2021/12/01 15:28:38;;;;;;;0.70;0.70;;;9.40;99.90;;;;;;4976134;28;20447;-70
2021/12/01 15:31:06;;;;;;;0.50;0.50;;;9.40;99.90;;;;;;4975625;28;20478;-71
2021/12/01 15:33:34;;;;;;;0.80;0.80;;;9.30;99.90;;;;;;4976083;28;20460;-70
2021/12/01 15:36:01;;;;;;;0.70;0.70;;;9.30;99.90;;;;;;4975795;28;20471;-70
2021/12/01 15:38:30;;;;;;;0.80;0.80;;;9.40;99.90;;;;;;4975392;28;20458;-70
2021/12/01 15:40:57;;;;;;;1.67;1.17;;;9.30;99.90;;;;;;4975692;28;20965;-71
2021/12/01 15:43:23;;;;;;;1.00;1.00;;;9.40;99.90;;;;;;4975915;28;20455;-71
2021/12/01 15:45:51;;;;;;;0.93;0.93;;;9.30;99.90;;;;;;4975881;28;20451;-71
2021/12/01 15:48:18;;;;;;;2.27;1.30;;;9.30;99.90;;;;;;4976229;28;20455;-71
2021/12/01 15:50:45;;;;;;;1.20;1.10;;;9.30;99.90;;;;;;4975582;28;20982;-70
2021/12/01 15:53:13;;;;;;;1.20;1.20;;;9.30;99.90;;;;;;4975903;28;20459;-71
2021/12/01 15:55:41;;;;;;;1.83;1.73;;;9.30;99.90;;;;;;4975950;28;20575;-71
2021/12/01 15:58:08;;;;;;;1.53;1.43;;;9.30;99.90;;;;;;4976747;28;20455;-71
2021/12/01 16:00:36;;;;;;;1.27;0.90;;;9.30;99.90;;;;;;4975444;28;20853;-71
2021/12/01 16:03:02;;;;;;;1.30;1.30;;;9.30;99.90;;;;;;4978780;28;20466;-70
2021/12/01 16:05:29;;;;;;;2.30;2.20;;;9.30;99.90;;;;;;4980194;28;20450;-70
2021/12/01 16:08:01;;;;;;;1.40;1.40;;;9.20;99.90;;;;;;4979567;28;20913;-70
2021/12/01 16:10:28;;;;;;;1.50;1.40;;;9.10;99.90;;;;;;4979360;28;20915;-71
2021/12/01 16:12:57;;;;;;;0.80;0.80;;;9.00;99.90;;;;;;4979760;28;20457;-71
2021/12/01 16:15:24;;;;;;;1.23;0.70;;;9.00;99.90;;;;;;4979841;28;20486;-70
2021/12/01 16:17:51;;;;;;;0.77;0.77;;;9.10;99.90;;;;;;4979645;28;20934;-70
2021/12/01 16:20:19;;;;;;;0.70;0.70;;;9.00;99.90;;;;;;4979169;28;20459;-70
2021/12/01 16:22:47;;;;;;;0.70;0.50;;;9.10;99.90;;;;;;4979535;28;20553;-71
2021/12/01 16:25:15;;;;;;;0.70;0.70;;;9.10;99.90;;;;;;4979631;28;20446;-70
2021/12/01 16:27:43;;;;;;;0.57;0.57;;;9.10;99.90;;;;;;4979528;28;20815;-70
2021/12/01 16:30:15;;;;;;;0.40;0.40;;;9.00;99.90;;;;;;4979793;28;20463;-70
2021/12/01 16:32:48;;;;;;;0.50;0.50;;;9.10;99.90;;;;;;4978868;28;20515;-70
2021/12/01 16:35:15;;;;;;;0.47;0.47;;;9.20;99.90;;;;;;4979201;28;20550;-71
2021/12/01 16:37:42;;;;;;;0.70;0.70;;;9.20;99.90;;;;;;4978868;28;20466;-70
2021/12/01 16:40:10;;;;;;;0.63;0.63;;;9.20;99.90;;;;;;4978949;28;20455;-71
2021/12/01 16:42:37;;;;;;;0.77;0.77;;;9.20;99.90;;;;;;4978974;28;20482;-70
2021/12/01 16:45:04;;;;;;;0.63;0.60;;;9.20;99.90;;;;;;4978782;28;20458;-72
2021/12/01 16:47:32;;;;;;;0.67;0.67;;;9.10;99.90;;;;;;4978573;28;20459;-70
2021/12/01 16:50:00;;;;;;;0.70;0.70;;;9.00;99.90;;;;;;4978639;28;20965;-70
2021/12/01 16:52:28;;;;;;;0.60;0.60;;;9.10;99.90;;;;;;4978779;28;20481;-70
2021/12/01 16:54:55;;;;;;;0.60;0.60;;;9.10;99.90;;;;;;4979692;28;20553;-71
2021/12/01 16:57:22;;;;;;;0.70;0.70;;;9.10;99.90;;;;;;4978597;28;20462;-70
2021/12/01 16:59:49;;;;;;;1.00;1.00;;;9.10;99.90;;;;;;4977917;28;20457;-70
2021/12/01 17:02:17;;;;;;;0.60;0.60;;;9.10;99.90;;;;;;4978530;28;20494;-71
2021/12/01 17:04:49;;;;;;;0.70;0.70;;;9.10;99.90;;;;;;4978801;28;20488;-70
2021/12/01 17:07:25;;;;;;;0.50;0.50;;;9.10;99.90;;;;;;4978313;28;20440;-70
2021/12/01 17:09:52;;;;;;;0.70;0.70;;;9.20;99.90;;;;;;4978278;28;20461;-71
2021/12/01 17:12:21;;;;;;;0.70;0.70;;;9.10;99.90;;;;;;4978058;28;20482;-70
2021/12/01 17:14:48;;;;;;;0.50;0.50;;;9.10;99.90;;;;;;4976493;28;20458;-70
2021/12/01 17:17:16;;;;;;;0.67;0.67;;;9.10;99.90;;;;;;4977526;28;20459;-70
2021/12/01 17:19:45;;;;;;;0.70;0.70;;;9.10;99.90;;;;;;4977562;28;20487;-70
2021/12/01 17:22:12;;;;;;;0.80;0.80;;;9.10;99.90;;;;;;4977706;28;20482;-70
2021/12/01 17:24:39;;;;;;;0.83;0.83;;;9.10;99.90;;;;;;4977627;28;20458;-71
2021/12/01 17:27:10;;;;;;;0.70;0.70;;;9.10;99.90;;;;;;4977615;28;20541;-71
2021/12/01 17:29:38;;;;;;;0.60;0.60;;;9.10;99.90;;;;;;4977589;28;20454;-70
2021/12/01 17:32:08;;;;;;;0.60;0.60;;;9.10;99.90;;;;;;4977338;28;20982;-70
2021/12/01 17:34:37;;;;;;;0.60;0.60;;;9.10;99.90;;;;;;4977713;28;20475;-69
2021/12/01 17:37:06;;;;;;;0.70;0.70;;;9.10;99.90;;;;;;4977743;28;20490;-71
2021/12/01 17:39:35;;;;;;;0.70;0.70;;;9.10;99.90;;;;;;4977247;28;20546;-70
2021/12/01 17:42:02;;;;;;;0.80;0.80;;;9.20;99.90;;;;;;4977120;28;20815;-70
2021/12/01 17:44:30;;;;;;;0.70;0.70;;;9.20;99.90;;;;;;4977189;28;20860;-71
2021/12/01 17:46:57;;;;;;;1.77;0.60;;;9.20;99.90;;;;;;4976817;28;20459;-71
2021/12/01 17:49:26;;;;;;;0.70;0.70;;;9.20;99.90;;;;;;4976999;28;20462;-71
2021/12/01 17:51:53;;;;;;;0.67;0.67;;;9.20;99.90;;;;;;4977029;28;20475;-70
2021/12/01 17:54:22;;;;;;;0.60;0.60;;;9.20;99.90;;;;;;4977931;28;20772;-70
2021/12/01 17:56:49;;;;;;;0.60;0.60;;;9.20;99.90;;;;;;4976620;28;20478;-72
2021/12/01 17:59:16;;;;;;;0.83;0.60;;;9.20;99.90;;;;;;4976736;28;20455;-70
2021/12/01 18:01:43;;;;;;;0.67;0.67;;;9.20;99.90;;;;;;4976353;28;20990;-71
2021/12/01 18:04:11;;;;;;;0.40;0.40;;;9.20;99.90;;;;;;4976893;28;20847;-71
2021/12/01 18:06:38;;;;;;;0.70;0.63;;;9.10;99.90;;;;;;4976907;28;20551;-71